createdAt,value
2018-07-25T00:01:40.147Z,22.10
2018-07-25T00:04:09.955Z,22.00
2018-07-25T00:06:39.830Z,22.00
2018-07-25T00:09:10.743Z,21.90
2018-07-25T00:11:40.574Z,21.80
2018-07-25T00:14:10.432Z,21.80
2018-07-25T00:16:40.270Z,21.80
2018-07-25T00:19:10.117Z,21.80
2018-07-25T00:21:39.939Z,21.70
2018-07-25T00:24:09.827Z,21.60
2018-07-25T00:26:39.718Z,21.60
2018-07-25T00:29:09.830Z,21.60
2018-07-25T00:31:39.686Z,21.60
2018-07-25T00:34:09.871Z,21.50
2018-07-25T00:36:41.139Z,21.50
2018-07-25T00:39:11.708Z,21.50
2018-07-25T00:41:41.506Z,21.50
2018-07-25T00:44:11.654Z,21.40
2018-07-25T00:46:42.115Z,21.40
2018-07-25T00:49:11.967Z,21.40
2018-07-25T00:51:42.086Z,21.30
2018-07-25T00:54:12.230Z,21.30
2018-07-25T00:56:42.346Z,21.30
2018-07-25T00:59:12.482Z,21.30
2018-07-25T01:01:42.331Z,21.20
2018-07-25T01:04:12.791Z,21.20
2018-07-25T01:06:42.950Z,21.20
2018-07-25T01:09:13.440Z,21.20
2018-07-25T01:11:43.558Z,21.20
2018-07-25T01:14:13.694Z,21.20
2018-07-25T01:16:44.202Z,21.20
2018-07-25T01:19:14.367Z,21.20
2018-07-25T01:21:44.478Z,21.20
2018-07-25T01:24:14.330Z,21.30
2018-07-25T01:26:44.939Z,21.20
2018-07-25T01:29:15.074Z,21.30
2018-07-25T01:31:45.381Z,21.30
2018-07-25T01:34:15.242Z,21.30
2018-07-25T01:36:45.350Z,21.30
2018-07-25T01:39:15.522Z,21.20
2018-07-25T01:41:45.676Z,21.30
2018-07-25T01:44:15.806Z,21.20
2018-07-25T01:46:45.955Z,21.20
2018-07-25T01:49:16.094Z,21.20
2018-07-25T01:51:46.258Z,21.20
2018-07-25T01:54:16.395Z,21.20
2018-07-25T01:56:46.547Z,21.20
2018-07-25T01:59:16.670Z,21.10
2018-07-25T02:01:46.806Z,21.20
2018-07-25T02:04:16.922Z,21.10
2018-07-25T02:06:47.088Z,21.10
2018-07-25T02:09:17.455Z,21.10
2018-07-25T02:11:47.602Z,21.00
2018-07-25T02:14:17.738Z,20.90
2018-07-25T02:16:47.846Z,20.90
2018-07-25T02:19:17.995Z,20.90
2018-07-25T02:21:47.839Z,21.00
2018-07-25T02:24:17.977Z,20.90
2018-07-25T02:26:48.106Z,20.90
2018-07-25T02:29:18.251Z,20.90
2018-07-25T02:31:48.414Z,20.90
2018-07-25T02:34:22.331Z,20.80
2018-07-25T02:36:53.081Z,20.80
2018-07-25T02:39:23.236Z,20.80
2018-07-25T02:41:53.386Z,20.80
2018-07-25T02:44:23.515Z,20.80
2018-07-25T02:46:53.683Z,20.70
2018-07-25T02:49:23.870Z,20.70
2018-07-25T02:51:53.991Z,20.70
2018-07-25T02:54:24.126Z,20.70
2018-07-25T02:56:54.417Z,20.60
2018-07-25T02:59:24.647Z,20.60
2018-07-25T03:01:54.879Z,20.60
2018-07-25T03:04:25.030Z,20.50
2018-07-25T03:06:55.131Z,20.50
2018-07-25T03:09:25.264Z,20.50
2018-07-25T03:11:55.405Z,20.50
2018-07-25T03:14:25.527Z,20.50
2018-07-25T03:16:55.885Z,20.40
2018-07-25T03:19:25.999Z,20.40
2018-07-25T03:21:56.146Z,20.40
2018-07-25T03:24:26.314Z,20.40
2018-07-25T03:26:56.455Z,20.40
2018-07-25T03:29:26.953Z,20.40
2018-07-25T03:31:57.062Z,20.30
2018-07-25T03:34:27.539Z,20.30
2018-07-25T03:36:58.011Z,20.30
2018-07-25T03:39:28.162Z,20.30
2018-07-25T03:41:58.302Z,20.20
2018-07-25T03:44:28.462Z,20.30
2018-07-25T03:46:58.614Z,20.20
2018-07-25T03:49:28.811Z,20.20
2018-07-25T03:51:58.962Z,20.20
2018-07-25T03:54:30.016Z,20.20
2018-07-25T03:57:00.161Z,20.20
2018-07-25T03:59:30.258Z,20.10
2018-07-25T04:02:00.422Z,20.10
2018-07-25T04:04:30.724Z,20.10
2018-07-25T04:07:00.877Z,20.10
2018-07-25T04:09:31.346Z,20.10
2018-07-25T04:12:01.487Z,20.10
2018-07-25T04:14:31.606Z,20.10
2018-07-25T04:17:01.739Z,20.10
2018-07-25T04:19:31.870Z,20.10
2018-07-25T04:22:01.993Z,20.10
2018-07-25T04:24:32.134Z,20.10
2018-07-25T04:27:02.618Z,20.10
2018-07-25T04:29:32.754Z,20.10
2018-07-25T04:32:02.866Z,20.10
2018-07-25T04:34:33.006Z,20.10
2018-07-25T04:37:03.124Z,20.10
2018-07-25T04:39:33.270Z,20.10
2018-07-25T04:42:03.390Z,20.10
2018-07-25T04:44:33.526Z,20.10
2018-07-25T04:47:03.682Z,20.10
2018-07-25T04:49:33.830Z,20.10
2018-07-25T04:52:04.306Z,20.10
2018-07-25T04:54:34.462Z,20.10
2018-07-25T04:57:04.602Z,20.10
2018-07-25T04:59:34.798Z,20.10
2018-07-25T05:02:05.123Z,20.10
2018-07-25T05:04:35.275Z,20.10
2018-07-25T05:07:05.389Z,20.10
2018-07-25T05:09:35.754Z,20.10
2018-07-25T05:12:06.075Z,20.10
2018-07-25T05:14:36.396Z,20.10
2018-07-25T05:17:06.567Z,20.10
2018-07-25T05:19:36.922Z,20.20
2018-07-25T05:22:07.078Z,20.20
2018-07-25T05:24:37.214Z,20.20
2018-07-25T05:27:07.369Z,20.30
2018-07-25T05:29:37.483Z,20.40
2018-07-25T05:32:07.635Z,20.40
2018-07-25T05:34:37.467Z,20.50
2018-07-25T05:37:07.626Z,20.60
2018-07-25T05:39:37.742Z,20.60
2018-07-25T05:42:07.910Z,20.70
2018-07-25T05:44:38.043Z,20.80
2018-07-25T05:47:08.534Z,20.80
2018-07-25T05:49:38.685Z,20.90
2018-07-25T05:52:09.190Z,21.00
2018-07-25T05:54:39.342Z,21.10
2018-07-25T05:57:09.167Z,21.20
2018-07-25T05:59:39.322Z,21.20
2018-07-25T06:02:09.732Z,21.30
2018-07-25T06:04:39.592Z,21.40
2018-07-25T06:07:09.718Z,21.50
2018-07-25T06:09:40.232Z,21.60
2018-07-25T06:12:10.508Z,21.70
2018-07-25T06:14:40.861Z,21.80
2018-07-25T06:17:11.014Z,21.90
2018-07-25T06:19:41.177Z,22.00
2018-07-25T06:22:11.502Z,22.10
2018-07-25T06:24:41.658Z,22.20
2018-07-25T06:27:11.826Z,22.30
2018-07-25T06:29:41.746Z,22.40
2018-07-25T06:32:11.562Z,22.50
2018-07-25T06:34:41.448Z,22.60
2018-07-25T06:37:11.591Z,22.70
2018-07-25T06:39:41.717Z,22.80
2018-07-25T06:42:11.663Z,22.90
2018-07-25T06:44:41.487Z,23.00
2018-07-25T06:47:11.977Z,23.00
2018-07-25T06:49:42.159Z,23.10
2018-07-25T06:52:12.230Z,23.30
2018-07-25T06:54:42.098Z,23.30
2018-07-25T06:57:12.015Z,23.40
2018-07-25T06:59:42.021Z,23.40
2018-07-25T07:02:12.044Z,23.50
2018-07-25T07:04:41.902Z,23.60
2018-07-25T07:07:12.099Z,23.70
2018-07-25T07:09:42.339Z,23.80
2018-07-25T07:12:12.266Z,23.90
2018-07-25T07:14:42.618Z,24.00
2018-07-25T07:17:12.702Z,24.10
2018-07-25T07:19:42.558Z,24.10
2018-07-25T07:22:12.592Z,24.20
2018-07-25T07:24:42.599Z,24.30
2018-07-25T07:27:12.428Z,24.30
2018-07-25T07:29:42.278Z,24.30
2018-07-25T07:32:12.108Z,24.40
2018-07-25T07:34:41.965Z,24.40
2018-07-25T07:37:11.999Z,24.50
2018-07-25T07:39:42.105Z,24.50
2018-07-25T07:42:11.976Z,24.60
2018-07-25T07:44:41.822Z,24.70
2018-07-25T07:47:11.665Z,24.80
2018-07-25T07:49:41.527Z,24.80
2018-07-25T07:52:11.358Z,24.80
2018-07-25T07:54:41.239Z,24.90
2018-07-25T07:57:11.094Z,25.00
2018-07-25T07:59:40.958Z,25.00
2018-07-25T08:02:11.098Z,25.10
2018-07-25T08:04:40.965Z,25.10
2018-07-25T08:07:10.852Z,25.20
2018-07-25T08:09:40.714Z,25.20
2018-07-25T08:12:10.577Z,25.20
2018-07-25T08:14:40.443Z,25.30
2018-07-25T08:17:10.298Z,25.40
2018-07-25T08:19:40.368Z,25.40
2018-07-25T08:22:10.406Z,25.50
2018-07-25T08:24:40.469Z,25.50
2018-07-25T08:27:10.282Z,25.60
2018-07-25T08:29:40.154Z,25.60
2018-07-25T08:32:10.071Z,25.70
2018-07-25T08:34:40.120Z,25.70
2018-07-25T08:37:10.025Z,25.80
2018-07-25T08:39:39.854Z,25.90
2018-07-25T08:42:10.066Z,25.90
2018-07-25T08:44:40.744Z,25.90
2018-07-25T08:47:10.898Z,26.00
2018-07-25T08:49:41.442Z,26.10
2018-07-25T08:52:11.294Z,26.10
2018-07-25T08:54:41.158Z,26.20
2018-07-25T08:57:11.115Z,26.20
2018-07-25T08:59:40.942Z,26.30
2018-07-25T09:02:11.334Z,26.40
2018-07-25T09:04:41.558Z,26.50
2018-07-25T09:07:11.386Z,26.50
2018-07-25T09:09:41.297Z,26.60
2018-07-25T09:12:11.266Z,26.60
2018-07-25T09:14:42.659Z,26.70
2018-07-25T09:19:44.610Z,26.90
2018-07-25T09:22:14.574Z,26.90
2018-07-25T09:24:44.766Z,27.00
2018-07-25T09:27:14.610Z,27.10
2018-07-25T09:29:44.690Z,27.20
2018-07-25T09:32:14.726Z,27.20
2018-07-25T09:34:44.774Z,27.30
2018-07-25T09:37:14.804Z,27.40
2018-07-25T09:39:44.886Z,27.40
2018-07-25T09:42:14.933Z,27.50
2018-07-25T09:44:44.994Z,27.50
2018-07-25T09:47:15.048Z,27.60
2018-07-25T09:49:45.084Z,27.70
2018-07-25T09:52:15.127Z,27.80
2018-07-25T09:54:45.810Z,27.90
2018-07-25T09:57:15.870Z,27.90
2018-07-25T09:59:45.934Z,28.00
2018-07-25T10:02:15.997Z,28.10
2018-07-25T10:04:46.202Z,28.20
2018-07-25T10:07:16.349Z,28.20
2018-07-25T10:09:46.291Z,28.30
2018-07-25T10:12:16.497Z,28.30
2018-07-25T10:14:46.522Z,28.40
2018-07-25T10:17:16.926Z,28.50
2018-07-25T10:19:47.922Z,28.60
2018-07-25T10:22:17.986Z,28.70
2018-07-25T10:24:48.103Z,28.70
2018-07-25T10:27:18.300Z,28.70
2018-07-25T10:29:48.271Z,28.90
2018-07-25T10:32:18.302Z,28.90
2018-07-25T10:34:48.358Z,29.00
2018-07-25T10:37:18.529Z,29.10
2018-07-25T10:39:48.559Z,29.20
2018-07-25T10:42:18.683Z,29.20
2018-07-25T10:44:48.735Z,29.30
2018-07-25T10:47:19.470Z,29.40
2018-07-25T10:49:49.503Z,29.50
2018-07-25T10:52:19.635Z,29.60
2018-07-25T10:54:49.654Z,29.70
2018-07-25T10:57:19.695Z,29.80
2018-07-25T10:59:50.105Z,29.90
2018-07-25T11:02:20.143Z,30.00
2018-07-25T11:04:50.282Z,30.00
2018-07-25T11:07:20.389Z,30.00
2018-07-25T11:09:50.470Z,30.10
2018-07-25T11:12:20.578Z,30.10
2018-07-25T11:14:50.613Z,30.30
2018-07-25T11:17:20.646Z,30.30
2018-07-25T11:19:51.467Z,30.40
2018-07-25T11:22:21.519Z,30.50
2018-07-25T11:24:51.559Z,30.60
2018-07-25T11:27:21.642Z,30.70
2018-07-25T11:29:51.690Z,30.80
2018-07-25T11:32:21.636Z,30.80
2018-07-25T11:34:51.614Z,30.90
2018-07-25T11:37:21.522Z,31.00
2018-07-25T11:39:51.342Z,31.10
2018-07-25T11:42:21.558Z,31.20
2018-07-25T11:44:51.363Z,31.30
2018-07-25T11:47:21.203Z,31.40
2018-07-25T11:49:51.074Z,31.40
2018-07-25T11:52:21.134Z,31.50
2018-07-25T11:54:50.994Z,31.60
2018-07-25T11:57:20.822Z,31.60
2018-07-25T11:59:51.001Z,31.70
2018-07-25T12:02:20.807Z,31.80
2018-07-25T12:04:50.634Z,32.00
2018-07-25T12:07:20.476Z,32.10
2018-07-25T12:09:50.878Z,32.10
2018-07-25T12:12:20.898Z,32.20
2018-07-25T12:14:50.946Z,32.30
2018-07-25T12:17:20.958Z,32.30
2018-07-25T12:19:50.800Z,32.40
2018-07-25T12:22:20.855Z,32.50
2018-07-25T12:24:51.571Z,32.50
2018-07-25T12:27:21.610Z,32.50
2018-07-25T12:29:51.865Z,32.60
2018-07-25T12:32:22.266Z,32.60
2018-07-25T12:34:52.274Z,32.60
2018-07-25T12:37:22.326Z,32.70
2018-07-25T12:39:52.343Z,32.70
2018-07-25T12:42:22.426Z,32.80
2018-07-25T12:44:52.795Z,32.80
2018-07-25T12:47:22.818Z,32.90
2018-07-25T12:49:53.206Z,32.90
2018-07-25T12:52:23.260Z,33.00
2018-07-25T12:54:53.298Z,33.10
2018-07-25T12:57:23.323Z,33.20
2018-07-25T12:59:53.350Z,33.20
2018-07-25T13:02:23.388Z,33.30
2018-07-25T13:04:53.499Z,33.40
2018-07-25T13:07:23.852Z,33.50
2018-07-25T13:09:53.902Z,33.40
2018-07-25T13:12:23.942Z,33.40
2018-07-25T13:14:53.947Z,33.40
2018-07-25T13:17:24.347Z,33.50
2018-07-25T13:19:55.083Z,33.50
2018-07-25T13:22:25.148Z,33.60
2018-07-25T13:24:55.155Z,33.60
2018-07-25T13:27:25.206Z,33.70
2018-07-25T13:29:55.242Z,33.70
2018-07-25T13:32:25.462Z,33.80
2018-07-25T13:34:55.824Z,33.80
2018-07-25T13:37:25.890Z,33.80
2018-07-25T13:39:55.936Z,33.80
2018-07-25T13:42:26.014Z,33.90
2018-07-25T13:44:56.056Z,34.00
2018-07-25T13:47:26.290Z,34.10
2018-07-25T13:49:56.318Z,34.30
2018-07-25T13:52:26.358Z,34.40
2018-07-25T13:54:56.386Z,34.50
2018-07-25T13:57:26.426Z,34.60
2018-07-25T13:59:56.783Z,34.60
2018-07-25T14:04:56.602Z,34.60
2018-07-25T14:07:26.638Z,34.60
2018-07-25T14:12:26.716Z,34.60
2018-07-25T14:14:57.070Z,34.60
2018-07-25T14:17:28.366Z,34.60
2018-07-25T14:19:58.466Z,34.50
2018-07-25T14:22:28.539Z,34.40
2018-07-25T14:24:58.578Z,34.30
2018-07-25T14:27:28.610Z,34.20
2018-07-25T14:29:58.984Z,34.10
2018-07-25T14:32:28.995Z,33.90
2018-07-25T14:34:59.044Z,33.80
2018-07-25T14:37:29.064Z,33.70
2018-07-25T14:39:59.197Z,33.70
2018-07-25T14:42:29.208Z,33.70
2018-07-25T14:44:59.811Z,33.50
2018-07-25T14:47:29.846Z,33.40
2018-07-25T14:49:59.885Z,33.20
2018-07-25T14:52:29.951Z,33.00
2018-07-25T14:55:00.355Z,32.80
2018-07-25T14:57:30.360Z,32.70
2018-07-25T15:00:00.415Z,32.60
2018-07-25T15:02:30.460Z,32.50
2018-07-25T15:05:00.858Z,32.50
2018-07-25T15:07:30.898Z,32.50
2018-07-25T15:10:00.967Z,32.50
2018-07-25T15:12:36.499Z,32.50
2018-07-25T15:15:06.866Z,32.60
2018-07-25T15:17:37.459Z,32.60
2018-07-25T15:20:08.446Z,32.70
2018-07-25T15:22:38.945Z,32.70
2018-07-25T15:25:09.215Z,32.70
2018-07-25T15:27:39.630Z,32.80
2018-07-25T15:30:10.990Z,32.80
2018-07-25T15:32:41.553Z,32.90
2018-07-25T15:35:11.911Z,33.00
2018-07-25T15:37:42.326Z,33.00
2018-07-25T15:40:12.362Z,33.00
2018-07-25T15:42:42.446Z,32.90
2018-07-25T15:45:12.502Z,32.80
2018-07-25T15:47:42.548Z,32.70
2018-07-25T15:50:12.591Z,32.60
2018-07-25T15:52:43.005Z,32.50
2018-07-25T15:55:12.996Z,32.40
2018-07-25T15:57:48.667Z,32.30
2018-07-25T16:00:18.678Z,32.30
2018-07-25T16:02:48.706Z,32.30
2018-07-25T16:05:18.750Z,32.20
2018-07-25T16:07:48.780Z,32.20
2018-07-25T16:10:18.802Z,32.20
2018-07-25T16:12:48.834Z,32.30
2018-07-25T16:15:19.189Z,32.20
2018-07-25T16:17:49.575Z,32.10
2018-07-25T16:20:19.596Z,32.10
2018-07-25T16:22:49.644Z,32.10
2018-07-25T16:25:20.443Z,32.00
2018-07-25T16:27:51.173Z,31.90
2018-07-25T16:30:21.286Z,31.90
2018-07-25T16:32:51.798Z,31.80
2018-07-25T16:35:21.834Z,31.80
2018-07-25T16:37:51.874Z,31.70
2018-07-25T16:40:21.953Z,31.70
2018-07-25T16:42:52.207Z,31.70
2018-07-25T16:45:22.944Z,31.70
2018-07-25T16:47:52.964Z,31.60
2018-07-25T16:50:23.326Z,31.60
2018-07-25T16:52:53.814Z,31.60
2018-07-25T16:55:23.859Z,31.50
2018-07-25T16:57:53.930Z,31.50
2018-07-25T17:00:24.007Z,31.50
2018-07-25T17:02:54.016Z,31.50
2018-07-25T17:05:24.078Z,31.50
2018-07-25T17:07:54.106Z,31.50
2018-07-25T17:10:24.180Z,31.50
2018-07-25T17:12:54.411Z,31.50
2018-07-25T17:15:24.622Z,31.40
2018-07-25T17:17:54.790Z,31.30
2018-07-25T17:20:25.199Z,31.20
2018-07-25T17:22:55.314Z,31.20
2018-07-25T17:25:26.011Z,31.20
2018-07-25T17:27:56.051Z,31.00
2018-07-25T17:30:26.091Z,30.90
2018-07-25T17:32:56.142Z,30.90
2018-07-25T17:35:26.536Z,30.70
2018-07-25T17:37:56.573Z,30.60
2018-07-25T17:40:26.626Z,30.60
2018-07-25T17:42:56.801Z,30.50
2018-07-25T17:45:26.883Z,30.50
2018-07-25T17:47:56.960Z,30.40
2018-07-25T17:50:27.347Z,30.30
2018-07-25T17:52:57.439Z,30.10
2018-07-25T17:55:27.964Z,30.10
2018-07-25T17:57:57.974Z,30.00
2018-07-25T18:00:30.493Z,29.90
2018-07-25T18:03:02.016Z,29.80
2018-07-25T18:05:33.623Z,29.80
2018-07-25T18:08:04.660Z,29.70
2018-07-25T18:10:36.510Z,29.60
2018-07-25T18:13:12.922Z,29.50
2018-07-25T18:15:43.969Z,29.40
2018-07-25T18:18:14.918Z,29.30
2018-07-25T18:20:45.020Z,29.20
2018-07-25T18:23:15.099Z,29.10
2018-07-25T18:25:45.163Z,29.10
2018-07-25T18:28:15.274Z,29.00
2018-07-25T18:30:45.338Z,28.90
2018-07-25T18:33:15.399Z,28.80
2018-07-25T18:35:45.419Z,28.70
2018-07-25T18:38:15.472Z,28.70
2018-07-25T18:40:45.507Z,28.60
2018-07-25T18:43:15.616Z,28.50
2018-07-25T18:45:45.650Z,28.40
2018-07-25T18:48:15.706Z,28.40
2018-07-25T18:50:45.755Z,28.30
2018-07-25T18:53:16.163Z,28.20
2018-07-25T18:55:46.219Z,28.10
2018-07-25T18:58:16.247Z,28.00
2018-07-25T19:00:46.168Z,28.00
2018-07-25T19:03:16.011Z,27.90
2018-07-25T19:05:49.436Z,27.90
2018-07-25T19:08:20.878Z,27.80
2018-07-25T19:10:52.493Z,27.80
2018-07-25T19:13:36.062Z,27.80
2018-07-25T19:16:07.390Z,27.70
2018-07-25T19:18:37.243Z,27.70
2018-07-25T19:21:07.147Z,27.70
2018-07-25T19:23:36.975Z,27.80
2018-07-25T19:26:06.814Z,27.70
2018-07-25T19:28:36.682Z,27.70
2018-07-25T19:31:06.572Z,27.60
2018-07-25T19:33:36.410Z,27.60
2018-07-25T19:36:06.227Z,27.50
2018-07-25T19:38:36.171Z,27.50
2018-07-25T19:41:06.015Z,27.50
2018-07-25T19:43:36.301Z,27.50
2018-07-25T19:46:06.179Z,27.40
2018-07-25T19:48:36.378Z,27.40
2018-07-25T19:51:06.552Z,27.40
2018-07-25T19:53:36.386Z,27.30
2018-07-25T19:56:06.253Z,27.30
2018-07-25T19:58:36.430Z,27.20
2018-07-25T20:01:06.308Z,27.20
2018-07-25T20:03:36.253Z,27.20
2018-07-25T20:06:06.031Z,27.20
2018-07-25T20:08:35.889Z,27.10
2018-07-25T20:11:06.043Z,27.10
2018-07-25T20:13:40.282Z,27.00
2018-07-25T20:16:10.446Z,27.00
2018-07-25T20:18:40.305Z,26.90
2018-07-25T20:21:10.115Z,26.90
2018-07-25T20:23:39.955Z,26.90
2018-07-25T20:26:09.801Z,26.80
2018-07-25T20:28:39.666Z,26.80
2018-07-25T20:31:09.870Z,26.80
2018-07-25T20:33:39.689Z,26.70
2018-07-25T20:36:10.015Z,26.60
2018-07-25T20:38:39.905Z,26.50
2018-07-25T20:41:09.924Z,26.50
2018-07-25T20:43:39.799Z,26.40
2018-07-25T20:46:09.847Z,26.40
2018-07-25T20:48:39.789Z,26.30
2018-07-25T20:51:09.619Z,26.20
2018-07-25T20:53:41.343Z,26.20
2018-07-25T20:56:18.639Z,26.10
2018-07-25T21:01:23.925Z,26.00
2018-07-25T21:03:57.089Z,25.90
2018-07-25T21:06:29.719Z,25.90
2018-07-25T21:09:02.650Z,25.80
2018-07-25T21:11:36.297Z,25.70
2018-07-25T21:14:14.068Z,25.70
2018-07-25T21:16:46.959Z,25.60
2018-07-25T21:19:23.112Z,25.50
2018-07-25T21:21:58.982Z,25.50
2018-07-25T21:24:33.050Z,25.40
2018-07-25T21:27:06.432Z,25.30
2018-07-25T21:32:11.025Z,25.20
2018-07-25T21:34:51.825Z,25.10
2018-07-25T21:37:33.561Z,25.10
2018-07-25T21:40:07.239Z,25.10
2018-07-25T21:45:14.198Z,25.00
2018-07-25T21:47:47.174Z,24.90
2018-07-25T21:50:21.118Z,24.80
2018-07-25T21:52:55.783Z,24.80
2018-07-25T21:55:30.509Z,24.70
2018-07-25T21:58:03.240Z,24.60
2018-07-25T22:00:35.294Z,24.50
2018-07-25T22:03:09.655Z,24.50
2018-07-25T22:05:43.279Z,24.40
2018-07-25T22:08:20.343Z,24.30
2018-07-25T22:10:54.929Z,24.30
2018-07-25T22:13:26.334Z,24.20
2018-07-25T22:16:00.404Z,24.20
2018-07-25T22:18:32.525Z,24.10
2018-07-25T22:21:04.433Z,24.10
2018-07-25T22:23:37.257Z,24.10
2018-07-25T22:26:08.412Z,24.10
2018-07-25T22:28:43.793Z,24.10
2018-07-25T22:31:15.610Z,24.00
2018-07-25T22:33:46.885Z,24.00
2018-07-25T22:36:18.031Z,24.00
2018-07-25T22:38:50.061Z,23.90
2018-07-25T22:41:21.114Z,23.80
2018-07-25T22:43:52.127Z,23.80
2018-07-25T22:46:23.023Z,23.70
2018-07-25T22:48:53.815Z,23.60
2018-07-25T22:51:24.606Z,23.60
2018-07-25T22:53:54.798Z,23.60
2018-07-25T22:56:24.622Z,23.50
2018-07-25T22:58:54.467Z,23.40
2018-07-25T23:01:24.306Z,23.40
2018-07-25T23:03:54.138Z,23.30
2018-07-25T23:06:23.986Z,23.30
2018-07-25T23:08:53.814Z,23.30
2018-07-25T23:11:24.002Z,23.20
2018-07-25T23:13:53.823Z,23.20
2018-07-25T23:16:23.670Z,23.20
2018-07-25T23:18:54.301Z,23.10
2018-07-25T23:21:24.142Z,23.10
2018-07-25T23:23:54.422Z,23.10
2018-07-25T23:26:24.266Z,23.00
2018-07-25T23:28:54.109Z,23.00
2018-07-25T23:31:24.266Z,22.90
2018-07-25T23:33:54.098Z,22.90
2018-07-25T23:36:24.105Z,22.80
2018-07-25T23:38:53.942Z,22.80
2018-07-25T23:41:23.755Z,22.80
2018-07-25T23:43:53.631Z,22.70
2018-07-25T23:46:23.455Z,22.70
2018-07-25T23:48:53.302Z,22.70
2018-07-25T23:51:23.118Z,22.60
2018-07-25T23:53:53.306Z,22.60
2018-07-25T23:56:23.322Z,22.50
2018-07-25T23:58:53.166Z,22.50
